Time;durP1;ratioP1;P1;durP2;ratioP2;P2;SDS_P1;SDS_P2;PMS_P1;PMS_P2;Temp;Humidity;BMP_temperature;BMP_pressure;BME280_temperature;BME280_humidity;BME280_pressure;Samples;Min_cycle;Max_cycle;Signal;HPM_P1;HPM_P2
2023/05/03 00:02:06;;;;;;;;;;;;;;;;;;5055784;28;19971;-65
2023/05/03 00:04:51;;;;;;;;;;;;;;;;;;5134837;27;19934;-65
2023/05/03 00:07:18;;;;;;;;;;;;;;;;;;5127778;28;19924;-65
2023/05/03 00:09:48;;;;;;;;;;;;;;;;;;5121199;28;19959;-65
2023/05/03 00:12:15;;;;;;;;;;;;;;;;;;5131170;28;19939;-65
2023/05/03 00:14:42;;;;;;;;;;;;;;;;;;5130899;28;19946;-65
2023/05/03 00:17:09;;;;;;;;;;;;;;;;;;5130526;28;19924;-66
2023/05/03 00:19:37;;;;;;;;;;;;;;;;;;5130483;28;19930;-63
2023/05/03 00:22:04;;;;;;;;;;;;;;;;;;5126562;28;19986;-62
2023/05/03 00:24:31;;;;;;;;;;;;;;;;;;5123653;28;19972;-63
2023/05/03 00:26:58;;;;;;;;;;;;;;;;;;5130423;28;19984;-63
2023/05/03 00:29:25;;;;;;;;;;;;;;;;;;5128641;27;19991;-62
2023/05/03 00:31:52;;;;;;;;;;;;;;;;;;5130275;28;19923;-64
2023/05/03 00:34:19;;;;;;;;;;;;;;;;;;5130350;27;19967;-63
2023/05/03 00:36:46;;;;;;;;;;;;;;;;;;5129483;28;20399;-63
2023/05/03 00:39:13;;;;;;;;;;;;;;;;;;5117670;28;19977;-63
2023/05/03 00:41:40;;;;;;;;;;;;;;;;;;5129884;28;19930;-63
2023/05/03 00:44:07;;;;;;;;;;;;;;;;;;5129389;28;19930;-63
2023/05/03 00:46:34;;;;;;;;;;;;;;;;;;5129563;28;20458;-66
2023/05/03 00:49:01;;;;;;;;;;;;;;;;;;5129671;27;19928;-63
2023/05/03 00:51:28;;;;;;;;;;;;;;;;;;5128989;28;19923;-64
2023/05/03 00:53:55;;;;;;;;;;;;;;;;;;5129286;28;20339;-63
2023/05/03 00:56:22;;;;;;;;;;;;;;;;;;5129434;28;19968;-63
2023/05/03 00:58:49;;;;;;;;;;;;;;;;;;5129449;27;19923;-63
2023/05/03 01:01:16;;;;;;;;;;;;;;;;;;5129413;28;19969;-64
2023/05/03 01:03:45;;;;;;;;;;;;;;;;;;5129661;28;19924;-64
2023/05/03 01:06:12;;;;;;;;;;;;;;;;;;5128531;28;19927;-65
2023/05/03 01:08:39;;;;;;;;;;;;;;;;;;5123237;27;20415;-64
2023/05/03 01:11:06;;;;;;;;;;;;;;;;;;5129098;27;20301;-65
2023/05/03 01:13:36;;;;;;;;;;;;;;;;;;5129038;28;19927;-65
2023/05/03 01:16:02;;;;;;;;;;;;;;;;;;5116449;28;19924;-65
2023/05/03 01:18:30;;;;;;;;;;;;;;;;;;5109293;28;19967;-65
2023/05/03 01:20:57;;;;;;;;;;;;;;;;;;5115123;28;19924;-64
2023/05/03 01:23:24;;;;;;;;;;;;;;;;;;5100868;28;20271;-64
2023/05/03 01:25:52;;;;;;;;;;;;;;;;;;5095658;28;19969;-64
2023/05/03 01:28:18;;;;;;;;;;;;;;;;;;5102172;28;19927;-64
2023/05/03 01:30:45;;;;;;;;;;;;;;;;;;5115727;28;19924;-64
2023/05/03 01:33:12;;;;;;;;;;;;;;;;;;5115599;28;19923;-64
2023/05/03 01:35:39;;;;;;;;;;;;;;;;;;5114868;28;19924;-64
2023/05/03 01:38:06;;;;;;;;;;;;;;;;;;5113900;28;19976;-65
2023/05/03 01:40:33;;;;;;;;;;;;;;;;;;5114602;28;19967;-65
2023/05/03 01:43:00;;;;;;;;;;;;;;;;;;5113933;28;19971;-65
2023/05/03 01:45:27;;;;;;;;;;;;;;;;;;5114541;28;19924;-64
2023/05/03 01:47:54;;;;;;;;;;;;;;;;;;5114037;28;20310;-65
2023/05/03 01:50:22;;;;;;;;;;;;;;;;;;5112276;28;19963;-64
2023/05/03 01:52:51;;;;;;;;;;;;;;;;;;5103741;28;20379;-64
2023/05/03 01:55:18;;;;;;;;;;;;;;;;;;5109876;28;19923;-64
2023/05/03 01:57:45;;;;;;;;;;;;;;;;;;5114926;28;19966;-64
2023/05/03 02:00:12;;;;;;;;;;;;;;;;;;5113650;28;19989;-64
2023/05/03 02:02:39;;;;;;;;;;;;;;;;;;5113382;28;19931;-64
2023/05/03 02:05:06;;;;;;;;;;;;;;;;;;5114786;28;20333;-63
2023/05/03 02:07:33;;;;;;;;;;;;;;;;;;5112093;28;19977;-63
2023/05/03 02:10:00;;;;;;;;;;;;;;;;;;5114111;28;19924;-63
2023/05/03 02:12:27;;;;;;;;;;;;;;;;;;5113652;28;19924;-63
2023/05/03 02:14:54;;;;;;;;;;;;;;;;;;5113935;28;19924;-64
2023/05/03 02:17:25;;;;;;;;;;;;;;;;;;5111870;28;19931;-64
2023/05/03 02:19:52;;;;;;;;;;;;;;;;;;5113676;28;19935;-64
2023/05/03 02:22:19;;;;;;;;;;;;;;;;;;5112110;28;19924;-64
2023/05/03 02:24:46;;;;;;;;;;;;;;;;;;5113279;28;19924;-64
2023/05/03 02:27:13;;;;;;;;;;;;;;;;;;5112043;28;20347;-64
2023/05/03 02:29:40;;;;;;;;;;;;;;;;;;5113432;28;19977;-64
2023/05/03 02:32:07;;;;;;;;;;;;;;;;;;5113029;28;20437;-65
2023/05/03 02:34:34;;;;;;;;;;;;;;;;;;5113179;28;19924;-64
2023/05/03 02:37:01;;;;;;;;;;;;;;;;;;5109819;28;19924;-64
2023/05/03 02:39:28;;;;;;;;;;;;;;;;;;5113330;28;19924;-64
2023/05/03 02:41:55;;;;;;;;;;;;;;;;;;5112839;28;20298;-63
2023/05/03 02:44:22;;;;;;;;;;;;;;;;;;5110198;28;20016;-63
2023/05/03 02:46:49;;;;;;;;;;;;;;;;;;5113032;28;19963;-64
2023/05/03 02:49:16;;;;;;;;;;;;;;;;;;5112807;28;20374;-64
2023/05/03 02:51:43;;;;;;;;;;;;;;;;;;5105106;28;19990;-64
2023/05/03 02:54:10;;;;;;;;;;;;;;;;;;5111874;28;19923;-64
2023/05/03 02:56:37;;;;;;;;;;;;;;;;;;5112787;28;19932;-64
2023/05/03 02:59:04;;;;;;;;;;;;;;;;;;5113718;28;20316;-64
2023/05/03 03:01:32;;;;;;;;;;;;;;;;;;5094875;28;19924;-63
2023/05/03 03:03:59;;;;;;;;;;;;;;;;;;5111205;28;19967;-64
2023/05/03 03:06:26;;;;;;;;;;;;;;;;;;5111840;28;20367;-63
2023/05/03 03:08:53;;;;;;;;;;;;;;;;;;5113583;28;20404;-64
2023/05/03 03:11:21;;;;;;;;;;;;;;;;;;5112892;28;19929;-63
2023/05/03 03:13:48;;;;;;;;;;;;;;;;;;5113526;28;20382;-63
2023/05/03 03:16:15;;;;;;;;;;;;;;;;;;5109758;28;19924;-64
2023/05/03 03:18:42;;;;;;;;;;;;;;;;;;5092828;28;19977;-63
2023/05/03 03:21:09;;;;;;;;;;;;;;;;;;5105954;28;20275;-64
2023/05/03 03:23:36;;;;;;;;;;;;;;;;;;5108636;28;19969;-63
2023/05/03 03:26:03;;;;;;;;;;;;;;;;;;5111878;28;20379;-63
2023/05/03 03:28:30;;;;;;;;;;;;;;;;;;5112436;28;20010;-63
2023/05/03 03:30:57;;;;;;;;;;;;;;;;;;5112607;28;19977;-63
2023/05/03 03:33:25;;;;;;;;;;;;;;;;;;5112625;28;20336;-64
2023/05/03 03:35:52;;;;;;;;;;;;;;;;;;5112525;28;19923;-63
2023/05/03 03:38:19;;;;;;;;;;;;;;;;;;5106292;28;19950;-63
2023/05/03 03:40:46;;;;;;;;;;;;;;;;;;5112924;28;19927;-63
2023/05/03 03:43:13;;;;;;;;;;;;;;;;;;5112410;28;19924;-63
2023/05/03 03:45:40;;;;;;;;;;;;;;;;;;5112160;28;20336;-63
2023/05/03 03:48:07;;;;;;;;;;;;;;;;;;5112694;28;19923;-63
2023/05/03 03:50:34;;;;;;;;;;;;;;;;;;5111741;28;19957;-63
2023/05/03 03:53:01;;;;;;;;;;;;;;;;;;5095304;28;19924;-63
2023/05/03 03:55:28;;;;;;;;;;;;;;;;;;5113246;28;19924;-64
2023/05/03 03:57:55;;;;;;;;;;;;;;;;;;5113117;28;19924;-65
2023/05/03 04:00:22;;;;;;;;;;;;;;;;;;5111513;28;19924;-64
2023/05/03 04:02:49;;;;;;;;;;;;;;;;;;5111456;28;19928;-64
2023/05/03 04:05:16;;;;;;;;;;;;;;;;;;5108107;28;19977;-65
2023/05/03 04:07:43;;;;;;;;;;;;;;;;;;5111555;28;20299;-64
2023/05/03 04:10:10;;;;;;;;;;;;;;;;;;5112342;28;19976;-63
2023/05/03 04:12:38;;;;;;;;;;;;;;;;;;5112590;28;19931;-64
2023/05/03 04:15:05;;;;;;;;;;;;;;;;;;5112075;28;20301;-64
2023/05/03 04:17:33;;;;;;;;;;;;;;;;;;5111632;28;19924;-64
2023/05/03 04:20:00;;;;;;;;;;;;;;;;;;5109918;28;20428;-64
2023/05/03 04:22:29;;;;;;;;;;;;;;;;;;5112355;28;20309;-64
2023/05/03 04:24:56;;;;;;;;;;;;;;;;;;5112736;28;19924;-64
2023/05/03 04:27:25;;;;;;;;;;;;;;;;;;5112141;28;19931;-64
2023/05/03 04:29:52;;;;;;;;;;;;;;;;;;5112363;28;20375;-64
2023/05/03 04:32:22;;;;;;;;;;;;;;;;;;5111910;28;19959;-64
2023/05/03 04:34:50;;;;;;;;;;;;;;;;;;5110471;28;19936;-64
2023/05/03 04:37:17;;;;;;;;;;;;;;;;;;5111973;28;19938;-64
2023/05/03 04:39:44;;;;;;;;;;;;;;;;;;5112184;28;20264;-64
2023/05/03 04:42:12;;;;;;;;;;;;;;;;;;5111468;28;20019;-64
2023/05/03 04:44:39;;;;;;;;;;;;;;;;;;5110612;28;19924;-64
2023/05/03 04:47:06;;;;;;;;;;;;;;;;;;5108829;28;19923;-64
2023/05/03 04:49:33;;;;;;;;;;;;;;;;;;5112672;28;19959;-64
2023/05/03 04:52:00;;;;;;;;;;;;;;;;;;5115330;28;19969;-64
2023/05/03 04:54:27;;;;;;;;;;;;;;;;;;5098565;28;19924;-64
2023/05/03 04:56:55;;;;;;;;;;;;;;;;;;5115577;28;19978;-64
2023/05/03 04:59:22;;;;;;;;;;;;;;;;;;5115112;28;19932;-64
2023/05/03 05:01:49;;;;;;;;;;;;;;;;;;5113506;28;20048;-62
2023/05/03 05:04:16;;;;;;;;;;;;;;;;;;5114829;28;19924;-64
2023/05/03 05:06:43;;;;;;;;;;;;;;;;;;5112137;28;20401;-63
2023/05/03 05:09:10;;;;;;;;;;;;;;;;;;5113357;27;19924;-63
2023/05/03 05:11:37;;;;;;;;;;;;;;;;;;5111835;28;19928;-63
2023/05/03 05:14:04;;;;;;;;;;;;;;;;;;5114295;27;19923;-64
2023/05/03 05:16:31;;;;;;;;;;;;;;;;;;5106486;27;19923;-64
2023/05/03 05:18:58;;;;;;;;;;;;;;;;;;5110102;28;20670;-64
2023/05/03 05:21:25;;;;;;;;;;;;;;;;;;5111393;27;19959;-64
2023/05/03 05:23:52;;;;;;;;;;;;;;;;;;5114207;28;19923;-64
2023/05/03 05:26:19;;;;;;;;;;;;;;;;;;5111858;28;19935;-64
2023/05/03 05:28:46;;;;;;;;;;;;;;;;;;5111074;28;19931;-64
2023/05/03 05:31:14;;;;;;;;;;;;;;;;;;5110490;28;19971;-65
2023/05/03 05:33:41;;;;;;;;;;;;;;;;;;5112727;28;20336;-64
2023/05/03 05:36:08;;;;;;;;;;;;;;;;;;5113920;28;19964;-65
2023/05/03 05:38:35;;;;;;;;;;;;;;;;;;5112808;27;19971;-65
2023/05/03 05:41:02;;;;;;;;;;;;;;;;;;5113644;28;19931;-65
2023/05/03 05:43:29;;;;;;;;;;;;;;;;;;5113648;28;19971;-65
2023/05/03 05:45:56;;;;;;;;;;;;;;;;;;5113899;28;19923;-65
2023/05/03 05:48:23;;;;;;;;;;;;;;;;;;5114567;28;19949;-65
2023/05/03 05:50:50;;;;;;;;;;;;;;;;;;5113751;28;19935;-66
2023/05/03 05:53:17;;;;;;;;;;;;;;;;;;5113960;28;20002;-65
2023/05/03 05:55:44;;;;;;;;;;;;;;;;;;5112742;28;19927;-65
2023/05/03 05:58:12;;;;;;;;;;;;;;;;;;5112447;28;19992;-65
2023/05/03 06:00:39;;;;;;;;;;;;;;;;;;5112105;28;20398;-65
2023/05/03 06:03:06;;;;;;;;;;;;;;;;;;5112271;28;19924;-65
2023/05/03 06:05:33;;;;;;;;;;;;;;;;;;5111255;28;20263;-65
2023/05/03 06:08:01;;;;;;;;;;;;;;;;;;5109804;28;19973;-64
2023/05/03 06:10:28;;;;;;;;;;;;;;;;;;5113512;28;19953;-64
2023/05/03 06:12:55;;;;;;;;;;;;;;;;;;5113875;28;19989;-65
2023/05/03 06:15:22;;;;;;;;;;;;;;;;;;5110633;28;19978;-64
2023/05/03 06:17:49;;;;;;;;;;;;;;;;;;5112467;28;20035;-65
2023/05/03 06:20:16;;;;;;;;;;;;;;;;;;5112946;28;20315;-64
2023/05/03 06:22:43;;;;;;;;;;;;;;;;;;5113147;28;19928;-64
2023/05/03 06:25:12;;;;;;;;;;;;;;;;;;5108408;28;19928;-65
2023/05/03 06:27:39;;;;;;;;;;;;;;;;;;5112839;28;19923;-66
2023/05/03 06:30:07;;;;;;;;;;;;;;;;;;5111127;27;19923;-65
2023/05/03 06:32:34;;;;;;;;;;;;;;;;;;5112721;28;20314;-66
2023/05/03 06:35:01;;;;;;;;;;;;;;;;;;5101546;28;19924;-66
2023/05/03 06:37:28;;;;;;;;;;;;;;;;;;5101711;27;20406;-63
2023/05/03 06:39:55;;;;;;;;;;;;;;;;;;5107679;27;19977;-65
2023/05/03 06:42:22;;;;;;;;;;;;;;;;;;5109451;28;20435;-64
2023/05/03 06:44:49;;;;;;;;;;;;;;;;;;5111028;28;19931;-64
2023/05/03 06:47:19;;;;;;;;;;;;;;;;;;5104951;28;20601;-65
2023/05/03 06:49:46;;;;;;;;;;;;;;;;;;5105450;28;20443;-65
2023/05/03 06:52:13;;;;;;;;;;;;;;;;;;5108364;28;19928;-65
2023/05/03 06:54:40;;;;;;;;;;;;;;;;;;5105765;27;19993;-65
2023/05/03 06:57:07;;;;;;;;;;;;;;;;;;5106352;27;19971;-65
2023/05/03 06:59:34;;;;;;;;;;;;;;;;;;5108946;28;20004;-65
2023/05/03 07:02:01;;;;;;;;;;;;;;;;;;5107307;28;19932;-66
2023/05/03 07:04:28;;;;;;;;;;;;;;;;;;5110923;28;20394;-65
2023/05/03 07:06:55;;;;;;;;;;;;;;;;;;5107314;27;19979;-67
2023/05/03 07:09:22;;;;;;;;;;;;;;;;;;5108259;28;19924;-64
2023/05/03 07:11:50;;;;;;;;;;;;;;;;;;5108756;28;20008;-66
2023/05/03 07:14:18;;;;;;;;;;;;;;;;;;5108841;28;19931;-65
2023/05/03 07:16:45;;;;;;;;;;;;;;;;;;5107750;28;19928;-65
2023/05/03 07:19:12;;;;;;;;;;;;;;;;;;5106331;28;20255;-65
2023/05/03 07:21:39;;;;;;;;;;;;;;;;;;5110452;28;19924;-65
2023/05/03 07:24:06;;;;;;;;;;;;;;;;;;5111834;28;19971;-65
2023/05/03 07:26:33;;;;;;;;;;;;;;;;;;5109120;28;19923;-65
2023/05/03 07:29:00;;;;;;;;;;;;;;;;;;5106597;28;20004;-65
2023/05/03 07:31:27;;;;;;;;;;;;;;;;;;5106680;28;20458;-65
2023/05/03 07:33:55;;;;;;;;;;;;;;;;;;5108982;28;20401;-65
2023/05/03 07:36:22;;;;;;;;;;;;;;;;;;5106541;28;19935;-65
2023/05/03 07:38:49;;;;;;;;;;;;;;;;;;5110642;28;19931;-66
2023/05/03 07:41:17;;;;;;;;;;;;;;;;;;5109068;27;19924;-65
2023/05/03 07:43:44;;;;;;;;;;;;;;;;;;5110454;28;19930;-65
2023/05/03 07:46:11;;;;;;;;;;;;;;;;;;5110509;28;20036;-65
2023/05/03 07:48:38;;;;;;;;;;;;;;;;;;5110674;28;19928;-69
2023/05/03 07:51:05;;;;;;;;;;;;;;;;;;5106599;28;19973;-68
2023/05/03 07:53:34;;;;;;;;;;;;;;;;;;5104908;27;19923;-69
2023/05/03 07:56:01;;;;;;;;;;;;;;;;;;5110116;28;20015;-66
2023/05/03 07:58:37;;;;;;;;;;;;;;;;;;5108519;28;19963;-66
2023/05/03 08:01:04;;;;;;;;;;;;;;;;;;5106484;28;20448;-66
2023/05/03 08:03:31;;;;;;;;;;;;;;;;;;5110259;28;20398;-65
2023/05/03 08:05:58;;;;;;;;;;;;;;;;;;5107269;28;19928;-65
2023/05/03 08:08:26;;;;;;;;;;;;;;;;;;5108832;28;19945;-65
2023/05/03 08:10:53;;;;;;;;;;;;;;;;;;5108598;28;19932;-64
2023/05/03 08:13:21;;;;;;;;;;;;;;;;;;5104771;28;19973;-65
2023/05/03 08:15:48;;;;;;;;;;;;;;;;;;5105654;28;19932;-65
2023/05/03 08:18:15;;;;;;;;;;;;;;;;;;5110018;28;19924;-64
2023/05/03 08:20:42;;;;;;;;;;;;;;;;;;5097332;28;19924;-64
2023/05/03 08:23:10;;;;;;;;;;;;;;;;;;5106921;28;19930;-64
2023/05/03 08:25:37;;;;;;;;;;;;;;;;;;5112163;28;19978;-64
2023/05/03 08:28:04;;;;;;;;;;;;;;;;;;5111941;28;19940;-64
2023/05/03 08:30:31;;;;;;;;;;;;;;;;;;5113751;28;19935;-64
2023/05/03 08:32:58;;;;;;;;;;;;;;;;;;5111001;28;19923;-64
2023/05/03 08:35:26;;;;;;;;;;;;;;;;;;5112504;28;19979;-63
2023/05/03 08:37:54;;;;;;;;;;;;;;;;;;5106093;28;19928;-63
2023/05/03 08:40:21;;;;;;;;;;;;;;;;;;5109438;27;20409;-63
2023/05/03 08:42:49;;;;;;;;;;;;;;;;;;5111725;28;19924;-64
2023/05/03 08:45:16;;;;;;;;;;;;;;;;;;5109625;28;19928;-63
2023/05/03 08:47:43;;;;;;;;;;;;;;;;;;5106170;28;19924;-63
2023/05/03 08:50:10;;;;;;;;;;;;;;;;;;5101379;28;20663;-64
2023/05/03 08:52:37;;;;;;;;;;;;;;;;;;5108395;27;19928;-64
2023/05/03 08:55:06;;;;;;;;;;;;;;;;;;5107418;27;19966;-63
2023/05/03 08:57:33;;;;;;;;;;;;;;;;;;5107642;28;19981;-67
2023/05/03 09:00:00;;;;;;;;;;;;;;;;;;5108857;28;20057;-66
2023/05/03 09:02:27;;;;;;;;;;;;;;;;;;5110473;27;20319;-66
2023/05/03 09:04:55;;;;;;;;;;;;;;;;;;5114491;28;19932;-66
2023/05/03 09:07:22;;;;;;;;;;;;;;;;;;5109334;27;19984;-66
2023/05/03 09:09:50;;;;;;;;;;;;;;;;;;5113050;28;19931;-66
2023/05/03 09:12:17;;;;;;;;;;;;;;;;;;5112120;28;19951;-66
2023/05/03 09:14:44;;;;;;;;;;;;;;;;;;5107223;27;19924;-66
2023/05/03 09:17:11;;;;;;;;;;;;;;;;;;5112531;28;20275;-65
2023/05/03 09:19:38;;;;;;;;;;;;;;;;;;5111204;28;19962;-66
2023/05/03 09:22:05;;;;;;;;;;;;;;;;;;5111225;28;19931;-66
2023/05/03 09:24:32;;;;;;;;;;;;;;;;;;5111167;28;19950;-66
2023/05/03 09:27:01;;;;;;;;;;;;;;;;;;5111518;28;19969;-65
2023/05/03 09:29:28;;;;;;;;;;;;;;;;;;5113551;28;20293;-66
2023/05/03 09:31:55;;;;;;;;;;;;;;;;;;5102843;28;20342;-67
2023/05/03 09:34:22;;;;;;;;;;;;;;;;;;5113699;28;20271;-66
2023/05/03 09:36:49;;;;;;;;;;;;;;;;;;5106957;28;19932;-67
2023/05/03 09:39:17;;;;;;;;;;;;;;;;;;5099803;28;19932;-67
2023/05/03 09:41:43;;;;;;;;;;;;;;;;;;5112432;28;20389;-66
2023/05/03 09:44:11;;;;;;;;;;;;;;;;;;5112404;28;19924;-65
2023/05/03 09:46:38;;;;;;;;;;;;;;;;;;5109451;28;19927;-68
2023/05/03 09:49:05;;;;;;;;;;;;;;;;;;5105398;27;19990;-68
2023/05/03 09:51:32;;;;;;;;;;;;;;;;;;5110851;28;20318;-67
2023/05/03 09:53:59;;;;;;;;;;;;;;;;;;5111772;27;20014;-67
2023/05/03 09:56:26;;;;;;;;;;;;;;;;;;5105067;27;19970;-68
2023/05/03 09:58:53;;;;;;;;;;;;;;;;;;5110169;28;19924;-68
2023/05/03 10:01:21;;;;;;;;;;;;;;;;;;5108573;28;20397;-68
2023/05/03 10:03:49;;;;;;;;;;;;;;;;;;5109618;28;19930;-68
2023/05/03 10:06:16;;;;;;;;;;;;;;;;;;5109424;28;19986;-68
2023/05/03 10:08:43;;;;;;;;;;;;;;;;;;5107324;28;19932;-68
2023/05/03 10:11:10;;;;;;;;;;;;;;;;;;5106818;27;19969;-68
2023/05/03 10:13:37;;;;;;;;;;;;;;;;;;5105684;27;19953;-68
2023/05/03 10:16:06;;;;;;;;;;;;;;;;;;5105179;28;20396;-66
2023/05/03 10:18:33;;;;;;;;;;;;;;;;;;5106761;28;19924;-64
2023/05/03 10:21:00;;;;;;;;;;;;;;;;;;5105266;28;20323;-65
2023/05/03 10:23:27;;;;;;;;;;;;;;;;;;5109703;27;19924;-65
2023/05/03 10:25:55;;;;;;;;;;;;;;;;;;5108116;28;19935;-65
2023/05/03 10:28:22;;;;;;;;;;;;;;;;;;5108619;28;19939;-64
2023/05/03 10:30:49;;;;;;;;;;;;;;;;;;5110301;28;19984;-65
2023/05/03 10:33:16;;;;;;;;;;;;;;;;;;5109063;28;20078;-65
2023/05/03 10:35:43;;;;;;;;;;;;;;;;;;5109641;28;20023;-65
2023/05/03 10:38:10;;;;;;;;;;;;;;;;;;5108557;28;19931;-66
2023/05/03 10:40:37;;;;;;;;;;;;;;;;;;5109620;28;19927;-65
2023/05/03 10:43:04;;;;;;;;;;;;;;;;;;5108233;28;20029;-65
2023/05/03 10:45:32;;;;;;;;;;;;;;;;;;5108324;28;19955;-66
2023/05/03 10:47:59;;;;;;;;;;;;;;;;;;5109638;28;19970;-63
2023/05/03 10:50:26;;;;;;;;;;;;;;;;;;5112788;27;20017;-65
2023/05/03 10:52:53;;;;;;;;;;;;;;;;;;5101364;28;20390;-64
2023/05/03 10:55:20;;;;;;;;;;;;;;;;;;5107257;28;19969;-65
2023/05/03 10:57:47;;;;;;;;;;;;;;;;;;5109352;28;20390;-64
2023/05/03 11:00:15;;;;;;;;;;;;;;;;;;5107235;28;19932;-64
2023/05/03 11:02:42;;;;;;;;;;;;;;;;;;5109111;28;19923;-64
2023/05/03 11:05:09;;;;;;;;;;;;;;;;;;5109002;28;19924;-65
2023/05/03 11:07:36;;;;;;;;;;;;;;;;;;5109403;27;19924;-64
2023/05/03 11:10:03;;;;;;;;;;;;;;;;;;5107569;28;19927;-63
2023/05/03 11:12:30;;;;;;;;;;;;;;;;;;5107599;28;19928;-64
2023/05/03 11:14:57;;;;;;;;;;;;;;;;;;5105700;28;19931;-64
2023/05/03 11:17:24;;;;;;;;;;;;;;;;;;5110058;28;19940;-64
2023/05/03 11:19:51;;;;;;;;;;;;;;;;;;5107469;28;22284;-63
2023/05/03 11:22:18;;;;;;;;;;;;;;;;;;5108335;28;19923;-64
2023/05/03 11:24:45;;;;;;;;;;;;;;;;;;5105984;28;20295;-64
2023/05/03 11:27:15;;;;;;;;;;;;;;;;;;5110529;28;19923;-64
2023/05/03 11:29:42;;;;;;;;;;;;;;;;;;5109201;28;19927;-64
2023/05/03 11:32:09;;;;;;;;;;;;;;;;;;5105019;28;19967;-64
2023/05/03 11:34:37;;;;;;;;;;;;;;;;;;5108543;28;20366;-64
2023/05/03 11:37:04;;;;;;;;;;;;;;;;;;5095587;28;19978;-65
2023/05/03 11:39:31;;;;;;;;;;;;;;;;;;5107020;28;19932;-65
2023/05/03 11:41:58;;;;;;;;;;;;;;;;;;5109312;28;20002;-65
2023/05/03 11:44:25;;;;;;;;;;;;;;;;;;5101567;28;19978;-65
2023/05/03 11:46:52;;;;;;;;;;;;;;;;;;5092127;28;20170;-64
2023/05/03 11:49:20;;;;;;;;;;;;;;;;;;5104688;28;20306;-65
2023/05/03 11:51:47;;;;;;;;;;;;;;;;;;5109764;28;19924;-63
2023/05/03 11:54:14;;;;;;;;;;;;;;;;;;5106775;28;19928;-67
2023/05/03 11:56:41;;;;;;;;;;;;;;;;;;5108199;28;19927;-64
2023/05/03 11:59:08;;;;;;;;;;;;;;;;;;5108925;28;19931;-64
2023/05/03 12:01:35;;;;;;;;;;;;;;;;;;5103869;28;19924;-64
2023/05/03 12:04:02;;;;;;;;;;;;;;;;;;5106856;28;19955;-64
2023/05/03 12:06:30;;;;;;;;;;;;;;;;;;5108374;28;20006;-65
2023/05/03 12:08:57;;;;;;;;;;;;;;;;;;5108455;28;19934;-64
2023/05/03 12:11:24;;;;;;;;;;;;;;;;;;5107656;28;19924;-65
2023/05/03 12:13:51;;;;;;;;;;;;;;;;;;5101684;28;19928;-65
2023/05/03 12:16:20;;;;;;;;;;;;;;;;;;5101904;28;19972;-65
2023/05/03 12:18:48;;;;;;;;;;;;;;;;;;5117298;28;19924;-65
2023/05/03 12:21:16;;;;;;;;;;;;;;;;;;5107334;28;19976;-64
2023/05/03 12:23:43;;;;;;;;;;;;;;;;;;5099962;28;19931;-64
2023/05/03 12:26:10;;;;;;;;;;;;;;;;;;5104663;28;20012;-64
2023/05/03 12:28:37;;;;;;;;;;;;;;;;;;5106289;28;20416;-64
2023/05/03 12:31:04;;;;;;;;;;;;;;;;;;5107382;28;19951;-64
2023/05/03 12:33:31;;;;;;;;;;;;;;;;;;5106115;28;20023;-65
2023/05/03 12:35:58;;;;;;;;;;;;;;;;;;5105970;28;19939;-65
2023/05/03 12:38:25;;;;;;;;;;;;;;;;;;5110153;28;19924;-65
2023/05/03 12:40:53;;;;;;;;;;;;;;;;;;5105563;28;22052;-66
2023/05/03 12:43:20;;;;;;;;;;;;;;;;;;5102662;28;20011;-66
2023/05/03 12:45:47;;;;;;;;;;;;;;;;;;5102228;28;19927;-66
2023/05/03 12:48:14;;;;;;;;;;;;;;;;;;5107461;28;19928;-65
2023/05/03 12:50:41;;;;;;;;;;;;;;;;;;5109585;28;19994;-66
2023/05/03 12:53:08;;;;;;;;;;;;;;;;;;5101903;28;19932;-66
2023/05/03 12:55:35;;;;;;;;;;;;;;;;;;5108430;28;19927;-66
2023/05/03 12:58:03;;;;;;;;;;;;;;;;;;5105664;28;19967;-66
2023/05/03 13:00:30;;;;;;;;;;;;;;;;;;5111280;28;19931;-66
2023/05/03 13:02:57;;;;;;;;;;;;;;;;;;5109668;28;19923;-65
2023/05/03 13:05:24;;;;;;;;;;;;;;;;;;5107654;28;19924;-66
2023/05/03 13:07:52;;;;;;;;;;;;;;;;;;5109004;28;20020;-66
2023/05/03 13:10:19;;;;;;;;;;;;;;;;;;5110643;28;20389;-65
2023/05/03 13:12:46;;;;;;;;;;;;;;;;;;5108621;28;20358;-65
2023/05/03 13:15:13;;;;;;;;;;;;;;;;;;5114857;28;19924;-66
2023/05/03 13:17:40;;;;;;;;;;;;;;;;;;5113327;28;19924;-66
2023/05/03 13:20:08;;;;;;;;;;;;;;;;;;5112308;28;20374;-65
2023/05/03 13:22:35;;;;;;;;;;;;;;;;;;5114168;28;20022;-66
2023/05/03 13:25:02;;;;;;;;;;;;;;;;;;5114284;28;19959;-66
2023/05/03 13:27:29;;;;;;;;;;;;;;;;;;5103273;28;20374;-66
2023/05/03 13:29:56;;;;;;;;;;;;;;;;;;5113526;28;19927;-65
2023/05/03 13:32:24;;;;;;;;;;;;;;;;;;5113750;28;20024;-66
2023/05/03 13:34:51;;;;;;;;;;;;;;;;;;5111666;28;19966;-66
2023/05/03 13:37:18;;;;;;;;;;;;;;;;;;5113936;28;19980;-66
2023/05/03 13:39:45;;;;;;;;;;;;;;;;;;5111248;28;19939;-66
2023/05/03 13:42:12;;;;;;;;;;;;;;;;;;5099956;28;19934;-66
2023/05/03 13:44:39;;;;;;;;;;;;;;;;;;5114449;28;19979;-66
2023/05/03 13:47:06;;;;;;;;;;;;;;;;;;5111288;28;20378;-66
2023/05/03 13:49:34;;;;;;;;;;;;;;;;;;5107078;28;19946;-66
2023/05/03 13:52:01;;;;;;;;;;;;;;;;;;5114234;28;19924;-66
2023/05/03 13:54:28;;;;;;;;;;;;;;;;;;5110253;28;20031;-66
2023/05/03 13:56:57;;;;;;;;;;;;;;;;;;5102545;27;19985;-65
2023/05/03 13:59:24;;;;;;;;;;;;;;;;;;5107908;28;19935;-64
2023/05/03 14:01:51;;;;;;;;;;;;;;;;;;5113606;28;20011;-65
2023/05/03 14:04:18;;;;;;;;;;;;;;;;;;5110558;28;19924;-65
2023/05/03 14:06:45;;;;;;;;;;;;;;;;;;5113234;28;19950;-66
2023/05/03 14:09:12;;;;;;;;;;;;;;;;;;5107079;28;19963;-66
2023/05/03 14:11:39;;;;;;;;;;;;;;;;;;5112182;28;19927;-66
2023/05/03 14:14:06;;;;;;;;;;;;;;;;;;5109178;28;19931;-65
2023/05/03 14:16:33;;;;;;;;;;;;;;;;;;5115178;28;20398;-66
2023/05/03 14:19:00;;;;;;;;;;;;;;;;;;5112342;28;19923;-67
2023/05/03 14:21:28;;;;;;;;;;;;;;;;;;5112770;28;20360;-66
2023/05/03 14:23:55;;;;;;;;;;;;;;;;;;5114033;28;20386;-66
2023/05/03 14:26:23;;;;;;;;;;;;;;;;;;5110370;28;19939;-66
2023/05/03 14:28:50;;;;;;;;;;;;;;;;;;5112606;28;19946;-66
2023/05/03 14:31:17;;;;;;;;;;;;;;;;;;5106508;28;19935;-65
2023/05/03 14:33:44;;;;;;;;;;;;;;;;;;5107043;28;20063;-65
2023/05/03 14:36:11;;;;;;;;;;;;;;;;;;5107497;28;19949;-66
2023/05/03 14:38:39;;;;;;;;;;;;;;;;;;5112017;28;20298;-66
2023/05/03 14:41:06;;;;;;;;;;;;;;;;;;5110726;28;19931;-65
2023/05/03 14:43:33;;;;;;;;;;;;;;;;;;5112362;28;19924;-65
2023/05/03 14:46:00;;;;;;;;;;;;;;;;;;5109934;28;19923;-67
2023/05/03 14:48:27;;;;;;;;;;;;;;;;;;5105808;27;19932;-66
2023/05/03 14:50:55;;;;;;;;;;;;;;;;;;5102205;28;19924;-66
2023/05/03 14:53:22;;;;;;;;;;;;;;;;;;5101694;28;20015;-66
2023/05/03 14:55:49;;;;;;;;;;;;;;;;;;5110962;28;19928;-67
2023/05/03 14:58:17;;;;;;;;;;;;;;;;;;5097785;27;19924;-66
2023/05/03 15:00:44;;;;;;;;;;;;;;;;;;5106694;28;20336;-67
2023/05/03 15:03:12;;;;;;;;;;;;;;;;;;5109827;28;19924;-66
2023/05/03 15:05:39;;;;;;;;;;;;;;;;;;5104895;28;19923;-66
2023/05/03 15:08:06;;;;;;;;;;;;;;;;;;5100695;28;19923;-66
2023/05/03 15:10:33;;;;;;;;;;;;;;;;;;5112310;28;19924;-66
2023/05/03 15:13:00;;;;;;;;;;;;;;;;;;5111421;28;20000;-66
2023/05/03 15:15:27;;;;;;;;;;;;;;;;;;5110988;28;19996;-67
2023/05/03 15:17:55;;;;;;;;;;;;;;;;;;5109367;28;19967;-66
2023/05/03 15:20:22;;;;;;;;;;;;;;;;;;5112149;28;19928;-67
2023/05/03 15:22:49;;;;;;;;;;;;;;;;;;5110238;28;20451;-66
2023/05/03 15:25:16;;;;;;;;;;;;;;;;;;5102616;28;20039;-67
2023/05/03 15:27:43;;;;;;;;;;;;;;;;;;5112464;28;19924;-66
2023/05/03 15:30:11;;;;;;;;;;;;;;;;;;5110952;28;20394;-65
2023/05/03 15:32:38;;;;;;;;;;;;;;;;;;5108080;28;19928;-67
2023/05/03 15:35:05;;;;;;;;;;;;;;;;;;5107146;28;19927;-66
2023/05/03 15:37:32;;;;;;;;;;;;;;;;;;5108814;28;19924;-67
2023/05/03 15:39:59;;;;;;;;;;;;;;;;;;5103259;28;19928;-65
2023/05/03 15:42:26;;;;;;;;;;;;;;;;;;5111878;28;20023;-66
2023/05/03 15:44:53;;;;;;;;;;;;;;;;;;5112390;28;20343;-65
2023/05/03 15:47:21;;;;;;;;;;;;;;;;;;5108169;28;19985;-65
2023/05/03 15:49:48;;;;;;;;;;;;;;;;;;5106412;28;19936;-65
2023/05/03 15:52:15;;;;;;;;;;;;;;;;;;5116068;28;19931;-66
2023/05/03 15:54:42;;;;;;;;;;;;;;;;;;5110896;28;19928;-66
2023/05/03 15:57:09;;;;;;;;;;;;;;;;;;5107298;28;19931;-66
2023/05/03 15:59:36;;;;;;;;;;;;;;;;;;5102882;28;19959;-65
2023/05/03 16:02:04;;;;;;;;;;;;;;;;;;5110286;28;19980;-65
2023/05/03 16:04:31;;;;;;;;;;;;;;;;;;5106694;28;19923;-67
2023/05/03 16:06:58;;;;;;;;;;;;;;;;;;5099205;28;19977;-66
2023/05/03 16:09:26;;;;;;;;;;;;;;;;;;5106153;28;20718;-65
2023/05/03 16:11:54;;;;;;;;;;;;;;;;;;5107674;28;19954;-66
2023/05/03 16:14:21;;;;;;;;;;;;;;;;;;5102077;28;20051;-65
2023/05/03 16:16:48;;;;;;;;;;;;;;;;;;5104314;28;19924;-66
2023/05/03 16:19:15;;;;;;;;;;;;;;;;;;5109091;28;20014;-67
2023/05/03 16:21:42;;;;;;;;;;;;;;;;;;5110890;28;20246;-66
2023/05/03 16:24:10;;;;;;;;;;;;;;;;;;5110228;28;19928;-67
2023/05/03 16:26:37;;;;;;;;;;;;;;;;;;5111798;28;20028;-66
2023/05/03 16:29:04;;;;;;;;;;;;;;;;;;5109818;28;19924;-66
2023/05/03 16:31:31;;;;;;;;;;;;;;;;;;5109044;28;20033;-66
2023/05/03 16:33:58;;;;;;;;;;;;;;;;;;5110662;28;19969;-67
2023/05/03 16:36:26;;;;;;;;;;;;;;;;;;5109683;28;19988;-66
2023/05/03 16:38:53;;;;;;;;;;;;;;;;;;5108362;28;20386;-66
2023/05/03 16:41:21;;;;;;;;;;;;;;;;;;5108292;28;19924;-66
2023/05/03 16:43:48;;;;;;;;;;;;;;;;;;5106927;28;19924;-66
2023/05/03 16:46:15;;;;;;;;;;;;;;;;;;5098749;28;19942;-66